sensor_id;sensor_type;location;lat;lon;timestamp;pressure;altitude;pressure_sealevel;temperature;humidity
83941;BME280;73976;68.386;23.636;2024-01-16T12:30:07;96110.25;;;-19.76;80.62
83941;BME280;73976;68.386;23.636;2024-01-16T12:32:36;96106.75;;;-19.72;80.49
83941;BME280;73976;68.386;23.636;2024-01-16T12:35:04;96169.38;;;-19.23;81.48
83941;BME280;73976;68.386;23.636;2024-01-16T12:37:34;96115.91;;;-19.48;82.71
83941;BME280;73976;68.386;23.636;2024-01-16T12:40:07;96066.91;;;-19.81;82.98
83941;BME280;73976;68.386;23.636;2024-01-16T12:42:40;96121.19;;;-19.33;83.02
83941;BME280;73976;68.386;23.636;2024-01-16T12:45:14;95979.25;;;-20.11;83.57
83941;BME280;73976;68.386;23.636;2024-01-16T12:47:54;96113.47;;;-19.28;83.62
83941;BME280;73976;68.386;23.636;2024-01-16T12:50:27;96111.41;;;-19.19;84.14
83941;BME280;73976;68.386;23.636;2024-01-16T12:53:10;96111.94;;;-19.11;85.13
83941;BME280;73976;68.386;23.636;2024-01-16T12:55:40;96133.69;;;-18.88;85.10
83941;BME280;73976;68.386;23.636;2024-01-16T12:58:32;96093.16;;;-19.02;84.51
83941;BME280;73976;68.386;23.636;2024-01-16T13:01:22;96135.38;;;-18.67;84.43
83941;BME280;73976;68.386;23.636;2024-01-16T13:04:08;96133.50;;;-18.62;85.17
83941;BME280;73976;68.386;23.636;2024-01-16T13:06:37;96058.91;;;-19.05;84.61
83941;BME280;73976;68.386;23.636;2024-01-16T13:09:08;96143.94;;;-18.51;84.37
83941;BME280;73976;68.386;23.636;2024-01-16T13:11:55;96118.41;;;-18.62;85.20
83941;BME280;73976;68.386;23.636;2024-01-16T13:14:27;96042.38;;;-19.10;84.85
83941;BME280;73976;68.386;23.636;2024-01-16T13:16:55;96040.47;;;-19.05;84.92
83941;BME280;73976;68.386;23.636;2024-01-16T13:19:24;95984.91;;;-19.39;85.14
83941;BME280;73976;68.386;23.636;2024-01-16T13:21:53;96087.50;;;-18.66;84.41
83941;BME280;73976;68.386;23.636;2024-01-16T13:24:22;96095.69;;;-18.61;85.12
83941;BME280;73976;68.386;23.636;2024-01-16T13:26:52;96128.47;;;-18.42;84.09
83941;BME280;73976;68.386;23.636;2024-01-16T13:29:20;96143.75;;;-18.27;83.62
83941;BME280;73976;68.386;23.636;2024-01-16T13:31:48;96098.63;;;-18.51;83.42
83941;BME280;73976;68.386;23.636;2024-01-16T13:34:23;96077.38;;;-18.64;82.94
83941;BME280;73976;68.386;23.636;2024-01-16T13:36:55;96020.56;;;-18.90;83.84
83941;BME280;73976;68.386;23.636;2024-01-16T13:39:43;96109.03;;;-18.39;83.39
83941;BME280;73976;68.386;23.636;2024-01-16T13:42:11;96126.19;;;-18.28;83.79
83941;BME280;73976;68.386;23.636;2024-01-16T13:44:39;96116.25;;;-18.31;84.36
83941;BME280;73976;68.386;23.636;2024-01-16T13:47:08;96028.69;;;-18.83;83.10
83941;BME280;73976;68.386;23.636;2024-01-16T13:49:42;96128.38;;;-18.21;83.97
83941;BME280;73976;68.386;23.636;2024-01-16T13:52:12;96096.44;;;-18.39;83.35
83941;BME280;73976;68.386;23.636;2024-01-16T13:54:41;96099.50;;;-18.32;84.07
83941;BME280;73976;68.386;23.636;2024-01-16T13:57:10;96022.53;;;-18.76;84.23
83941;BME280;73976;68.386;23.636;2024-01-16T13:59:40;96003.72;;;-18.88;83.00
83941;BME280;73976;68.386;23.636;2024-01-16T14:02:09;96121.53;;;-18.17;83.72
83941;BME280;73976;68.386;23.636;2024-01-16T14:04:37;96091.91;;;-18.31;83.90
83941;BME280;73976;68.386;23.636;2024-01-16T14:07:06;95895.66;;;-19.48;82.86
83941;BME280;73976;68.386;23.636;2024-01-16T14:09:41;96130.09;;;-18.01;83.10
83941;BME280;73976;68.386;23.636;2024-01-16T14:12:11;96107.94;;;-18.13;83.09
83941;BME280;73976;68.386;23.636;2024-01-16T14:14:41;96126.06;;;-18.05;83.83
83941;BME280;73976;68.386;23.636;2024-01-16T14:17:11;96131.72;;;-18.00;82.69
83941;BME280;73976;68.386;23.636;2024-01-16T14:19:40;96030.47;;;-18.65;83.08
83941;BME280;73976;68.386;23.636;2024-01-16T14:22:08;96089.06;;;-18.23;82.85
83941;BME280;73976;68.386;23.636;2024-01-16T14:24:38;96130.22;;;-18.04;83.40
83941;BME280;73976;68.386;23.636;2024-01-16T14:27:07;96141.66;;;-17.97;83.19
83941;BME280;73976;68.386;23.636;2024-01-16T14:29:37;96053.22;;;-18.48;83.26
83941;BME280;73976;68.386;23.636;2024-01-16T14:32:08;96123.97;;;-17.96;83.15
83941;BME280;73976;68.386;23.636;2024-01-16T14:34:36;95970.16;;;-18.87;83.28
83941;BME280;73976;68.386;23.636;2024-01-16T14:37:05;96124.66;;;-17.92;82.19
83941;BME280;73976;68.386;23.636;2024-01-16T14:39:33;96081.84;;;-18.12;82.57
83941;BME280;73976;68.386;23.636;2024-01-16T14:42:04;96113.03;;;-17.95;81.77
83941;BME280;73976;68.386;23.636;2024-01-16T14:44:35;96003.28;;;-18.57;81.50
83941;BME280;73976;68.386;23.636;2024-01-16T14:47:04;96025.34;;;-18.44;82.70
83941;BME280;73976;68.386;23.636;2024-01-16T14:49:32;96055.44;;;-18.22;81.70
83941;BME280;73976;68.386;23.636;2024-01-16T14:52:02;96095.72;;;-18.02;81.67
83941;BME280;73976;68.386;23.636;2024-01-16T14:54:31;96108.72;;;-17.93;82.13
83941;BME280;73976;68.386;23.636;2024-01-16T14:56:59;96033.38;;;-18.36;81.87
83941;BME280;73976;68.386;23.636;2024-01-16T14:59:27;96080.88;;;-18.08;81.64
83941;BME280;73976;68.386;23.636;2024-01-16T15:01:56;96082.69;;;-18.12;81.75
83941;BME280;73976;68.386;23.636;2024-01-16T15:04:24;96115.22;;;-17.87;81.43
83941;BME280;73976;68.386;23.636;2024-01-16T15:06:52;96119.09;;;-17.80;81.59
83941;BME280;73976;68.386;23.636;2024-01-16T15:09:23;96021.59;;;-18.35;81.74
83941;BME280;73976;68.386;23.636;2024-01-16T15:11:52;96111.34;;;-17.75;82.10
83941;BME280;73976;68.386;23.636;2024-01-16T15:14:20;96065.00;;;-18.10;81.56
83941;BME280;73976;68.386;23.636;2024-01-16T15:16:50;96025.34;;;-18.25;82.49
83941;BME280;73976;68.386;23.636;2024-01-16T15:19:19;96101.13;;;-17.72;81.15
83941;BME280;73976;68.386;23.636;2024-01-16T15:21:49;96092.41;;;-17.84;81.19
83941;BME280;73976;68.386;23.636;2024-01-16T15:24:18;95967.25;;;-18.58;81.75
83941;BME280;73976;68.386;23.636;2024-01-16T15:26:56;96059.31;;;-17.95;82.70
83941;BME280;73976;68.386;23.636;2024-01-16T15:29:25;96094.41;;;-17.72;82.79
83941;BME280;73976;68.386;23.636;2024-01-16T15:32:00;96072.25;;;-17.84;82.61
83941;BME280;73976;68.386;23.636;2024-01-16T15:34:29;96063.94;;;-17.86;82.75
83941;BME280;73976;68.386;23.636;2024-01-16T15:36:58;96103.06;;;-17.59;83.08
83941;BME280;73976;68.386;23.636;2024-01-16T15:39:30;96049.09;;;-17.92;83.26
83941;BME280;73976;68.386;23.636;2024-01-16T15:41:59;96050.59;;;-17.88;82.91
83941;BME280;73976;68.386;23.636;2024-01-16T15:44:28;96067.81;;;-17.79;82.02
83941;BME280;73976;68.386;23.636;2024-01-16T15:47:00;96101.16;;;-17.54;82.86
83941;BME280;73976;68.386;23.636;2024-01-16T15:49:30;96079.94;;;-17.68;82.45
83941;BME280;73976;68.386;23.636;2024-01-16T15:52:04;96055.16;;;-17.77;82.71
83941;BME280;73976;68.386;23.636;2024-01-16T15:54:33;96073.22;;;-17.68;81.65
83941;BME280;73976;68.386;23.636;2024-01-16T15:57:01;96106.78;;;-17.49;81.71
83941;BME280;73976;68.386;23.636;2024-01-16T15:59:29;96102.66;;;-17.50;81.56
83941;BME280;73976;68.386;23.636;2024-01-16T16:01:58;96062.38;;;-17.70;82.10
83941;BME280;73976;68.386;23.636;2024-01-16T16:04:30;96082.75;;;-17.56;82.67
83941;BME280;73976;68.386;23.636;2024-01-16T16:06:58;96097.34;;;-17.44;82.63
83941;BME280;73976;68.386;23.636;2024-01-16T16:09:28;96100.59;;;-17.42;82.36
83941;BME280;73976;68.386;23.636;2024-01-16T16:11:57;96001.63;;;-18.01;81.68
83941;BME280;73976;68.386;23.636;2024-01-16T16:14:28;96082.00;;;-17.58;82.10
83941;BME280;73976;68.386;23.636;2024-01-16T16:16:59;96050.81;;;-17.74;82.53
83941;BME280;73976;68.386;23.636;2024-01-16T16:19:30;96063.63;;;-17.60;82.77
83941;BME280;73976;68.386;23.636;2024-01-16T16:22:00;96037.25;;;-17.71;82.87
83941;BME280;73976;68.386;23.636;2024-01-16T16:24:28;96059.19;;;-17.55;82.04
83941;BME280;73976;68.386;23.636;2024-01-16T16:26:58;95996.13;;;-17.91;82.72
83941;BME280;73976;68.386;23.636;2024-01-16T16:29:28;95939.63;;;-18.22;82.21
83941;BME280;73976;68.386;23.636;2024-01-16T16:31:56;96101.53;;;-17.26;83.16
83941;BME280;73976;68.386;23.636;2024-01-16T16:34:27;96015.72;;;-17.78;83.04
83941;BME280;73976;68.386;23.636;2024-01-16T16:36:55;96089.53;;;-17.21;82.50
83941;BME280;73976;68.386;23.636;2024-01-16T16:39:24;95994.88;;;-17.82;82.96
83941;BME280;73976;68.386;23.636;2024-01-16T16:41:52;96100.16;;;-17.14;83.58
83941;BME280;73976;68.386;23.636;2024-01-16T16:44:20;96086.25;;;-17.23;82.64
83941;BME280;73976;68.386;23.636;2024-01-16T16:46:50;96104.25;;;-17.12;82.99
83941;BME280;73976;68.386;23.636;2024-01-16T16:49:19;96067.25;;;-17.30;82.56
83941;BME280;73976;68.386;23.636;2024-01-16T16:51:47;96029.00;;;-17.56;83.40
83941;BME280;73976;68.386;23.636;2024-01-16T16:54:16;96053.13;;;-17.34;82.64
83941;BME280;73976;68.386;23.636;2024-01-16T16:56:45;96063.91;;;-17.30;83.15
83941;BME280;73976;68.386;23.636;2024-01-16T16:59:15;96079.31;;;-17.18;83.06
83941;BME280;73976;68.386;23.636;2024-01-16T17:01:45;96091.63;;;-17.12;82.43
83941;BME280;73976;68.386;23.636;2024-01-16T17:04:14;95997.19;;;-17.59;82.93
83941;BME280;73976;68.386;23.636;2024-01-16T17:06:43;96002.84;;;-17.54;82.51
83941;BME280;73976;68.386;23.636;2024-01-16T17:09:12;96057.34;;;-17.16;83.09
83941;BME280;73976;68.386;23.636;2024-01-16T17:11:42;96049.03;;;-17.18;82.96
83941;BME280;73976;68.386;23.636;2024-01-16T17:14:11;96034.47;;;-17.30;83.00
83941;BME280;73976;68.386;23.636;2024-01-16T17:16:40;96055.09;;;-17.22;82.68
83941;BME280;73976;68.386;23.636;2024-01-16T17:19:09;96058.22;;;-17.17;83.00
83941;BME280;73976;68.386;23.636;2024-01-16T17:21:39;95992.78;;;-17.54;82.32
83941;BME280;73976;68.386;23.636;2024-01-16T17:24:09;96051.09;;;-17.26;82.92
83941;BME280;73976;68.386;23.636;2024-01-16T17:26:38;96073.69;;;-17.06;82.81
83941;BME280;73976;68.386;23.636;2024-01-16T17:29:07;96079.94;;;-16.96;82.89
83941;BME280;73976;68.386;23.636;2024-01-16T17:31:39;96085.53;;;-16.89;83.53
83941;BME280;73976;68.386;23.636;2024-01-16T17:34:08;96052.22;;;-17.14;83.19
83941;BME280;73976;68.386;23.636;2024-01-16T17:36:38;96078.03;;;-16.91;82.61
83941;BME280;73976;68.386;23.636;2024-01-16T17:39:11;96094.22;;;-16.78;82.16
83941;BME280;73976;68.386;23.636;2024-01-16T17:41:44;96086.03;;;-16.83;83.03
83941;BME280;73976;68.386;23.636;2024-01-16T17:44:13;96045.19;;;-17.08;82.18
83941;BME280;73976;68.386;23.636;2024-01-16T17:46:43;96034.41;;;-17.11;82.11
83941;BME280;73976;68.386;23.636;2024-01-16T17:49:14;96056.69;;;-17.02;81.85
83941;BME280;73976;68.386;23.636;2024-01-16T17:51:45;96019.22;;;-17.27;81.69
83941;BME280;73976;68.386;23.636;2024-01-16T17:54:15;95914.28;;;-17.82;81.68
83941;BME280;73976;68.386;23.636;2024-01-16T17:56:45;96031.19;;;-17.13;81.39
83941;BME280;73976;68.386;23.636;2024-01-16T17:59:17;96084.00;;;-16.75;82.37
83941;BME280;73976;68.386;23.636;2024-01-16T18:01:48;96043.44;;;-17.06;82.56
83941;BME280;73976;68.386;23.636;2024-01-16T18:04:17;96046.47;;;-16.99;82.02
83941;BME280;73976;68.386;23.636;2024-01-16T18:06:47;96029.44;;;-17.13;82.71
83941;BME280;73976;68.386;23.636;2024-01-16T18:09:18;95971.44;;;-17.47;81.80
83941;BME280;73976;68.386;23.636;2024-01-16T18:11:57;96073.50;;;-16.84;81.87
83941;BME280;73976;68.386;23.636;2024-01-16T18:14:34;96052.94;;;-16.94;82.24
83941;BME280;73976;68.386;23.636;2024-01-16T18:17:08;96090.50;;;-16.71;82.21
83941;BME280;73976;68.386;23.636;2024-01-16T18:19:42;96072.56;;;-16.82;81.69
83941;BME280;73976;68.386;23.636;2024-01-16T18:22:15;96054.78;;;-16.97;81.62
83941;BME280;73976;68.386;23.636;2024-01-16T18:24:46;96056.19;;;-16.92;81.84
83941;BME280;73976;68.386;23.636;2024-01-16T18:27:17;96071.72;;;-16.82;81.43
83941;BME280;73976;68.386;23.636;2024-01-16T18:29:47;96031.47;;;-17.02;81.82
83941;BME280;73976;68.386;23.636;2024-01-16T18:32:19;95981.75;;;-17.34;81.01
83941;BME280;73976;68.386;23.636;2024-01-16T18:34:50;96043.13;;;-17.00;81.95
83941;BME280;73976;68.386;23.636;2024-01-16T18:37:26;96075.94;;;-16.83;81.09
83941;BME280;73976;68.386;23.636;2024-01-16T18:39:57;96006.97;;;-17.17;81.76
83941;BME280;73976;68.386;23.636;2024-01-16T18:42:31;96090.28;;;-16.66;81.46
83941;BME280;73976;68.386;23.636;2024-01-16T18:45:06;95989.47;;;-17.20;81.34
83941;BME280;73976;68.386;23.636;2024-01-16T18:47:42;96074.19;;;-16.81;81.41
83941;BME280;73976;68.386;23.636;2024-01-16T18:50:20;96095.34;;;-16.66;81.85
83941;BME280;73976;68.386;23.636;2024-01-16T18:52:54;96041.34;;;-16.98;82.71
83941;BME280;73976;68.386;23.636;2024-01-16T18:55:27;96052.81;;;-16.91;81.83
83941;BME280;73976;68.386;23.636;2024-01-16T18:57:59;96023.97;;;-17.04;81.97
83941;BME280;73976;68.386;23.636;2024-01-16T19:00:36;95979.28;;;-17.36;82.02
83941;BME280;73976;68.386;23.636;2024-01-16T19:03:11;96034.47;;;-16.94;81.49
83941;BME280;73976;68.386;23.636;2024-01-16T19:05:41;96055.97;;;-16.87;81.38
83941;BME280;73976;68.386;23.636;2024-01-16T19:08:11;96067.72;;;-16.69;81.54
83941;BME280;73976;68.386;23.636;2024-01-16T19:10:44;96047.31;;;-16.82;81.90
83941;BME280;73976;68.386;23.636;2024-01-16T19:13:21;96083.47;;;-16.64;80.96
83941;BME280;73976;68.386;23.636;2024-01-16T19:15:55;96075.00;;;-16.63;81.52
83941;BME280;73976;68.386;23.636;2024-01-16T19:18:28;96052.88;;;-16.75;81.00
83941;BME280;73976;68.386;23.636;2024-01-16T19:21:07;96070.78;;;-16.63;81.29
83941;BME280;73976;68.386;23.636;2024-01-16T19:23:39;95958.91;;;-17.31;81.08
83941;BME280;73976;68.386;23.636;2024-01-16T19:26:11;96035.72;;;-16.86;81.76
83941;BME280;73976;68.386;23.636;2024-01-16T19:28:46;96045.88;;;-16.87;81.54
83941;BME280;73976;68.386;23.636;2024-01-16T19:31:17;95980.47;;;-17.26;81.43
83941;BME280;73976;68.386;23.636;2024-01-16T19:33:48;96026.75;;;-16.91;81.18
83941;BME280;73976;68.386;23.636;2024-01-16T19:36:23;96010.63;;;-17.06;81.11
83941;BME280;73976;68.386;23.636;2024-01-16T19:38:58;96003.34;;;-17.12;81.20
83941;BME280;73976;68.386;23.636;2024-01-16T19:41:38;95961.72;;;-17.37;81.85
83941;BME280;73976;68.386;23.636;2024-01-16T19:44:15;96022.06;;;-16.99;81.83
83941;BME280;73976;68.386;23.636;2024-01-16T19:46:53;96037.50;;;-16.88;81.44
83941;BME280;73976;68.386;23.636;2024-01-16T19:49:31;96044.19;;;-16.87;81.47
83941;BME280;73976;68.386;23.636;2024-01-16T19:52:10;96041.06;;;-16.92;82.17
83941;BME280;73976;68.386;23.636;2024-01-16T19:54:47;96068.84;;;-16.75;82.49
83941;BME280;73976;68.386;23.636;2024-01-16T19:57:26;96014.41;;;-16.97;82.47
83941;BME280;73976;68.386;23.636;2024-01-16T20:00:01;95967.72;;;-17.23;82.63
83941;BME280;73976;68.386;23.636;2024-01-16T20:02:31;95927.81;;;-17.49;81.65
83941;BME280;73976;68.386;23.636;2024-01-16T20:05:01;96008.75;;;-17.02;81.02
83941;BME280;73976;68.386;23.636;2024-01-16T20:07:35;95974.75;;;-17.29;81.16
83941;BME280;73976;68.386;23.636;2024-01-16T20:10:06;96039.22;;;-16.88;81.48
83941;BME280;73976;68.386;23.636;2024-01-16T20:12:37;96042.50;;;-16.86;81.61
83941;BME280;73976;68.386;23.636;2024-01-16T20:15:14;96088.44;;;-16.63;82.00
83941;BME280;73976;68.386;23.636;2024-01-16T20:17:48;96051.00;;;-16.89;82.02
83941;BME280;73976;68.386;23.636;2024-01-16T20:20:21;96062.59;;;-16.85;81.29
83941;BME280;73976;68.386;23.636;2024-01-16T20:22:49;96101.84;;;-16.61;82.36
83941;BME280;73976;68.386;23.636;2024-01-16T20:25:19;96035.09;;;-17.08;81.56
83941;BME280;73976;68.386;23.636;2024-01-16T20:27:51;96105.97;;;-16.60;81.24
83941;BME280;73976;68.386;23.636;2024-01-16T20:30:25;96095.28;;;-16.65;82.33
83941;BME280;73976;68.386;23.636;2024-01-16T20:32:57;96078.19;;;-16.77;81.60
83941;BME280;73976;68.386;23.636;2024-01-16T20:35:32;96115.03;;;-16.56;81.62
83941;BME280;73976;68.386;23.636;2024-01-16T20:38:07;96095.28;;;-16.65;82.04
83941;BME280;73976;68.386;23.636;2024-01-16T20:40:41;96080.84;;;-16.80;81.44
83941;BME280;73976;68.386;23.636;2024-01-16T20:43:16;96030.88;;;-17.07;81.50
83941;BME280;73976;68.386;23.636;2024-01-16T20:45:53;96027.25;;;-17.02;81.50
83941;BME280;73976;68.386;23.636;2024-01-16T20:48:30;96093.88;;;-16.70;81.72
83941;BME280;73976;68.386;23.636;2024-01-16T20:51:04;96122.59;;;-16.56;81.62
83941;BME280;73976;68.386;23.636;2024-01-16T20:53:37;96033.13;;;-17.01;81.45
83941;BME280;73976;68.386;23.636;2024-01-16T20:56:08;96073.97;;;-16.76;81.48
83941;BME280;73976;68.386;23.636;2024-01-16T20:58:39;96110.66;;;-16.52;82.63
83941;BME280;73976;68.386;23.636;2024-01-16T21:01:09;96091.19;;;-16.67;81.82
83941;BME280;73976;68.386;23.636;2024-01-16T21:03:37;96037.94;;;-16.97;82.84
83941;BME280;73976;68.386;23.636;2024-01-16T21:06:06;95988.81;;;-17.24;81.86
83941;BME280;73976;68.386;23.636;2024-01-16T21:08:37;96108.34;;;-16.57;82.05
83941;BME280;73976;68.386;23.636;2024-01-16T21:11:07;96001.84;;;-17.16;81.49
83941;BME280;73976;68.386;23.636;2024-01-16T21:13:36;96067.50;;;-16.82;81.60
83941;BME280;73976;68.386;23.636;2024-01-16T21:16:07;96085.19;;;-16.82;81.59
83941;BME280;73976;68.386;23.636;2024-01-16T21:18:40;96120.75;;;-16.52;82.02
83941;BME280;73976;68.386;23.636;2024-01-16T21:21:14;96087.41;;;-16.76;81.19
83941;BME280;73976;68.386;23.636;2024-01-16T21:23:44;96128.41;;;-16.54;81.43
83941;BME280;73976;68.386;23.636;2024-01-16T21:26:13;96035.03;;;-17.06;81.71
83941;BME280;73976;68.386;23.636;2024-01-16T21:28:42;96122.81;;;-16.60;81.67
83941;BME280;73976;68.386;23.636;2024-01-16T21:31:11;96076.56;;;-16.78;82.11
83941;BME280;73976;68.386;23.636;2024-01-16T21:33:41;96064.38;;;-16.87;81.01
83941;BME280;73976;68.386;23.636;2024-01-16T21:36:10;96018.78;;;-17.18;81.25
83941;BME280;73976;68.386;23.636;2024-01-16T21:38:42;96096.31;;;-16.69;81.64
83941;BME280;73976;68.386;23.636;2024-01-16T21:41:10;96072.25;;;-16.76;82.26
83941;BME280;73976;68.386;23.636;2024-01-16T21:43:40;95922.22;;;-17.72;81.58
83941;BME280;73976;68.386;23.636;2024-01-16T21:46:09;96084.44;;;-16.67;81.44
83941;BME280;73976;68.386;23.636;2024-01-16T21:48:37;96068.31;;;-16.81;82.02
83941;BME280;73976;68.386;23.636;2024-01-16T21:51:06;96036.31;;;-16.98;81.41
83941;BME280;73976;68.386;23.636;2024-01-16T21:53:36;96091.13;;;-16.66;81.61
83941;BME280;73976;68.386;23.636;2024-01-16T21:56:05;96091.06;;;-16.64;81.55
83941;BME280;73976;68.386;23.636;2024-01-16T21:58:33;96074.94;;;-16.79;82.26
83941;BME280;73976;68.386;23.636;2024-01-16T22:01:03;96091.72;;;-16.61;82.52
83941;BME280;73976;68.386;23.636;2024-01-16T22:03:31;96075.22;;;-16.68;82.43
83941;BME280;73976;68.386;23.636;2024-01-16T22:05:59;96127.66;;;-16.39;82.53
83941;BME280;73976;68.386;23.636;2024-01-16T22:08:29;96108.22;;;-16.54;82.11
83941;BME280;73976;68.386;23.636;2024-01-16T22:10:58;96093.66;;;-16.66;82.47
83941;BME280;73976;68.386;23.636;2024-01-16T22:13:26;96124.22;;;-16.38;82.25
83941;BME280;73976;68.386;23.636;2024-01-16T22:15:55;96120.06;;;-16.39;82.05
83941;BME280;73976;68.386;23.636;2024-01-16T22:18:23;96120.97;;;-16.40;81.87
83941;BME280;73976;68.386;23.636;2024-01-16T22:20:51;96089.78;;;-16.56;82.02
83941;BME280;73976;68.386;23.636;2024-01-16T22:23:20;96089.00;;;-16.56;82.13
83941;BME280;73976;68.386;23.636;2024-01-16T22:25:49;96087.34;;;-16.57;82.35
83941;BME280;73976;68.386;23.636;2024-01-16T22:28:17;96097.06;;;-16.50;81.94
83941;BME280;73976;68.386;23.636;2024-01-16T22:30:45;96114.28;;;-16.41;81.94
83941;BME280;73976;68.386;23.636;2024-01-16T22:33:13;96117.94;;;-16.29;81.78
83941;BME280;73976;68.386;23.636;2024-01-16T22:35:42;96101.09;;;-16.46;81.28
83941;BME280;73976;68.386;23.636;2024-01-16T22:38:10;96126.31;;;-16.29;80.66
83941;BME280;73976;68.386;23.636;2024-01-16T22:40:38;96076.38;;;-16.56;81.45
83941;BME280;73976;68.386;23.636;2024-01-16T22:43:07;96043.59;;;-16.75;81.55
83941;BME280;73976;68.386;23.636;2024-01-16T22:45:35;96116.81;;;-16.24;81.95
83941;BME280;73976;68.386;23.636;2024-01-16T22:48:03;96120.88;;;-16.21;81.67
83941;BME280;73976;68.386;23.636;2024-01-16T22:50:33;96068.41;;;-16.49;81.61
83941;BME280;73976;68.386;23.636;2024-01-16T22:53:02;96123.03;;;-16.14;81.83
83941;BME280;73976;68.386;23.636;2024-01-16T22:55:30;96120.50;;;-16.14;81.61
83941;BME280;73976;68.386;23.636;2024-01-16T22:58:02;96094.31;;;-16.28;81.68
83941;BME280;73976;68.386;23.636;2024-01-16T23:00:31;96110.63;;;-16.18;81.41
83941;BME280;73976;68.386;23.636;2024-01-16T23:02:59;96091.69;;;-16.27;81.00
83941;BME280;73976;68.386;23.636;2024-01-16T23:05:27;96114.28;;;-16.07;81.30
83941;BME280;73976;68.386;23.636;2024-01-16T23:07:56;96077.66;;;-16.32;81.25
83941;BME280;73976;68.386;23.636;2024-01-16T23:10:24;96070.25;;;-16.35;81.00
83941;BME280;73976;68.386;23.636;2024-01-16T23:12:53;96051.63;;;-16.50;81.52
83941;BME280;73976;68.386;23.636;2024-01-16T23:15:22;96107.16;;;-16.16;81.45
83941;BME280;73976;68.386;23.636;2024-01-16T23:17:50;96091.41;;;-16.21;81.50
83941;BME280;73976;68.386;23.636;2024-01-16T23:20:19;96061.16;;;-16.39;81.25
83941;BME280;73976;68.386;23.636;2024-01-16T23:22:48;96123.13;;;-15.98;81.71
83941;BME280;73976;68.386;23.636;2024-01-16T23:25:16;96096.31;;;-16.18;81.38
83941;BME280;73976;68.386;23.636;2024-01-16T23:27:45;96105.28;;;-16.12;81.36
83941;BME280;73976;68.386;23.636;2024-01-16T23:30:17;96078.84;;;-16.22;81.53
83941;BME280;73976;68.386;23.636;2024-01-16T23:32:48;96094.22;;;-16.10;81.71
83941;BME280;73976;68.386;23.636;2024-01-16T23:35:17;96076.25;;;-16.21;81.14
83941;BME280;73976;68.386;23.636;2024-01-16T23:37:45;96109.22;;;-16.07;81.63
83941;BME280;73976;68.386;23.636;2024-01-16T23:40:16;96040.66;;;-16.33;81.64
83941;BME280;73976;68.386;23.636;2024-01-16T23:42:47;96091.41;;;-16.04;81.38
83941;BME280;73976;68.386;23.636;2024-01-16T23:45:14;96118.19;;;-15.84;81.11
83941;BME280;73976;68.386;23.636;2024-01-16T23:47:56;96124.06;;;-15.84;81.04
83941;BME280;73976;68.386;23.636;2024-01-16T23:50:26;96119.91;;;-15.85;81.51
83941;BME280;73976;68.386;23.636;2024-01-16T23:52:54;96068.81;;;-16.24;81.72
83941;BME280;73976;68.386;23.636;2024-01-16T23:55:22;96078.31;;;-16.12;81.27
83941;BME280;73976;68.386;23.636;2024-01-16T23:57:51;96126.59;;;-15.84;82.15
